Time;durP1;ratioP1;P1;durP2;ratioP2;P2;SDS_P1;SDS_P2;PMS_P1;PMS_P2;Temp;Humidity;BMP_temperature;BMP_pressure;BME280_temperature;BME280_humidity;BME280_pressure;Samples;Min_cycle;Max_cycle;Signal;HPM_P1;HPM_P2
2024/01/27 00:01:01;;;;;;;0.20;0.20;;;;;;;-140.72;100.00;60430.25;5040692;28;20120;-70
2024/01/27 00:03:27;;;;;;;0.10;0.10;;;;;;;-140.72;100.00;60440.41;5041569;28;20134;-70
2024/01/27 00:05:52;;;;;;;0.10;0.10;;;;;;;-140.72;100.00;60507.50;5050553;28;20036;-70
2024/01/27 00:08:18;;;;;;;0.32;0.32;;;;;;;-140.72;100.00;60503.44;5048550;28;20040;-71
2024/01/27 00:10:45;;;;;;;0.10;0.10;;;;;;;-140.72;100.00;60499.38;5043809;28;20050;-70
2024/01/27 00:13:11;;;;;;;0.10;0.10;;;;;;;-140.72;100.00;60491.25;5044597;28;20130;-71
2024/01/27 00:15:36;;;;;;;0.10;0.10;;;;;;;-140.72;100.00;60548.19;5041540;28;20048;-70
2024/01/27 00:18:02;;;;;;;0.20;0.20;;;;;;;-140.72;100.00;60584.78;5023816;28;20027;-70
2024/01/27 00:20:27;;;;;;;0.10;0.10;;;;;;;-140.72;100.00;60617.31;5021915;28;20029;-70
2024/01/27 00:22:52;;;;;;;0.10;0.10;;;;;;;-140.72;100.00;60698.66;5023521;28;20070;-71
2024/01/27 00:25:18;;;;;;;0.10;0.10;;;;;;;-140.72;100.00;60684.41;5024651;28;20412;-70
2024/01/27 00:27:43;;;;;;;0.10;0.10;;;;;;;-140.72;100.00;60745.41;5052333;28;20028;-70
2024/01/27 00:30:11;;;;;;;0.10;0.10;;;;;;;-140.72;100.00;60838.94;5054574;28;20045;-71
2024/01/27 00:32:37;;;;;;;0.10;0.10;;;;;;;-140.72;100.00;60865.38;5040921;28;20107;-71
2024/01/27 00:35:02;;;;;;;0.20;0.20;;;;;;;-140.72;100.00;60879.63;5024836;28;20029;-71
2024/01/27 00:37:28;;;;;;;0.10;0.10;;;;;;;-140.72;100.00;60930.47;5045451;28;20031;-70
2024/01/27 00:39:54;;;;;;;0.10;0.10;;;;;;;-140.72;100.00;60991.47;5043516;28;20060;-70
2024/01/27 00:42:23;;;;;;;0.20;0.20;;;;;;;-140.72;100.00;60985.38;5041002;28;20063;-70
2024/01/27 00:44:49;;;;;;;0.20;0.20;;;;;;;-140.72;100.00;61009.75;5025450;28;20093;-70
2024/01/27 00:47:15;;;;;;;0.10;0.10;;;;;;;-140.72;100.00;61001.63;5029686;28;20074;-71
2024/01/27 00:49:40;;;;;;;0.20;0.20;;;;;;;-140.72;100.00;61056.53;5029171;28;20032;-70
2024/01/27 00:52:05;;;;;;;0.10;0.10;;;;;;;-140.72;100.00;61040.28;5045588;28;20036;-70
2024/01/27 00:54:31;;;;;;;0.20;0.20;;;;;;;-140.72;100.00;61087.03;5044405;28;20167;-70
2024/01/27 00:56:56;;;;;;;0.10;0.10;;;;;;;-140.72;100.00;61085.00;5042983;28;20028;-71
2024/01/27 00:59:21;;;;;;;0.10;0.10;;;;;;;-140.72;100.00;61097.22;5045904;28;20028;-71
2024/01/27 01:01:47;;;;;;;0.10;0.10;;;;;;;-140.72;100.00;61105.34;5046007;28;20482;-71
2024/01/27 01:04:13;;;;;;;0.20;0.20;;;;;;;-140.72;100.00;61166.34;5050359;28;20035;-71
2024/01/27 01:06:40;;;;;;;0.10;0.10;;;;;;;-140.72;100.00;61166.34;5026033;28;20254;-71
2024/01/27 01:09:05;;;;;;;0.10;0.10;;;;;;;-140.72;100.00;61170.41;5045004;28;20037;-71
2024/01/27 01:11:30;;;;;;;0.10;0.10;;;;;;;-140.72;100.00;61192.78;5041364;28;20025;-71
2024/01/27 01:13:56;;;;;;;0.10;0.10;;;;;;;-140.72;100.00;61200.91;5043191;28;20064;-71
2024/01/27 01:16:21;;;;;;;0.20;0.20;;;;;;;-140.72;100.00;61184.66;5048534;28;20032;-71
2024/01/27 01:18:46;;;;;;;0.10;0.10;;;;;;;-140.72;100.00;61227.34;5046256;28;20025;-71
2024/01/27 01:21:12;;;;;;;0.20;0.20;;;;;;;-140.72;100.00;61268.03;5041295;28;20057;-72
2024/01/27 01:23:38;;;;;;;0.10;0.10;;;;;;;-140.72;100.00;61235.50;5032443;28;20031;-71
2024/01/27 01:26:04;;;;;;;0.10;0.10;;;;;;;-140.72;100.00;61249.72;5034557;28;20083;-70
2024/01/27 01:28:31;;;;;;;0.10;0.10;;;;;;;-140.72;100.00;61268.03;5028156;28;20486;-72
2024/01/27 01:30:56;;;;;;;0.20;0.20;;;;;;;-140.72;100.00;61251.75;5025095;28;20106;-70
2024/01/27 01:33:22;;;;;;;0.20;0.20;;;;;;;-140.72;100.00;61318.88;5025027;28;20128;-71
2024/01/27 01:35:47;;;;;;;0.10;0.10;;;;;;;-140.72;100.00;61298.53;5040897;28;20021;-72
2024/01/27 01:38:13;;;;;;;0.10;0.10;;;;;;;-140.72;100.00;61345.31;5026460;28;20032;-70
2024/01/27 01:40:38;;;;;;;0.10;0.10;;;;;;;-140.72;100.00;61345.31;5028807;28;20029;-70
2024/01/27 01:43:09;;;;;;;0.10;0.10;;;;;;;-140.72;100.00;61361.59;5043164;28;20498;-71
2024/01/27 01:45:34;;;;;;;0.10;0.10;;;;;;;-140.72;100.00;61388.03;5038580;28;20471;-70
2024/01/27 01:48:01;;;;;;;0.20;0.20;;;;;;;-140.72;100.00;61475.47;5025949;28;20025;-70
2024/01/27 01:50:26;;;;;;;0.10;0.10;;;;;;;-140.72;100.00;61447.00;5043859;28;20056;-70
2024/01/27 01:52:52;;;;;;;0.20;0.20;;;;;;;-140.72;100.00;61522.25;5044509;28;20024;-71
2024/01/27 01:55:18;;;;;;;0.20;0.20;;;;;;;-140.72;100.00;61556.81;5040214;28;20033;-72
2024/01/27 01:57:44;;;;;;;0.20;0.20;;;;;;;-140.72;100.00;61552.75;5044933;28;20033;-70
2024/01/27 02:00:10;;;;;;;0.20;0.20;;;;;;;-140.72;100.00;61532.41;5043045;28;20033;-70
2024/01/27 02:02:35;;;;;;;0.20;0.20;;;;;;;-140.72;100.00;61524.28;5039254;28;20199;-71
2024/01/27 02:05:01;;;;;;;0.10;0.10;;;;;;;-140.72;100.00;61579.19;5046013;28;20056;-70
2024/01/27 02:07:27;;;;;;;0.20;0.20;;;;;;;-140.72;100.00;61577.16;5022029;28;20030;-71
2024/01/27 02:09:52;;;;;;;0.20;0.20;;;;;;;-140.72;100.00;61638.19;5025627;28;20056;-71
2024/01/27 02:12:17;;;;;;;0.20;0.20;;;;;;;-140.72;100.00;61634.09;5053027;28;20056;-70
2024/01/27 02:14:43;;;;;;;0.20;0.20;;;;;;;-140.72;100.00;61674.78;5051344;28;20355;-71
2024/01/27 02:17:08;;;;;;;0.20;0.20;;;;;;;-140.72;100.00;61743.94;5024922;28;20036;-71
2024/01/27 02:19:33;;;;;;;0.10;0.10;;;;;;;-140.72;100.00;61748.00;5048026;28;20106;-72
2024/01/27 02:21:59;;;;;;;0.20;0.20;;;;;;;-140.72;100.00;61733.78;5045528;28;20515;-71
2024/01/27 02:24:24;;;;;;;0.20;0.20;;;;;;;-140.72;100.00;61784.63;5050525;28;20021;-72
2024/01/27 02:26:50;;;;;;;0.20;0.20;;;;;;;-140.72;100.00;61790.72;5048357;28;20036;-71
2024/01/27 02:29:15;;;;;;;0.20;0.20;;;;;;;-140.72;100.00;61857.84;5025099;28;20491;-71
2024/01/27 02:31:41;;;;;;;0.20;0.20;;;;;;;-140.72;100.00;61833.44;5036326;28;20222;-71
2024/01/27 02:34:06;;;;;;;0.20;0.20;;;;;;;-140.72;100.00;61868.00;5041411;28;20041;-71
2024/01/27 02:36:31;;;;;;;0.20;0.20;;;;;;;-140.72;100.00;61898.50;5041029;28;20075;-71
2024/01/27 02:38:57;;;;;;;0.10;0.10;;;;;;;-140.72;100.00;61971.75;5048537;28;20032;-71
2024/01/27 02:41:22;;;;;;;0.20;0.20;;;;;;;-140.72;100.00;61985.97;5038741;28;20386;-71
2024/01/27 02:43:47;;;;;;;0.20;0.20;;;;;;;-140.72;100.00;61981.91;5022756;28;20021;-71
2024/01/27 02:46:15;;;;;;;0.20;0.20;;;;;;;-140.72;100.00;62036.84;5040142;28;20044;-70
2024/01/27 02:48:44;;;;;;;0.20;0.20;;;;;;;-140.72;100.00;62012.41;5023800;28;20082;-71
2024/01/27 02:51:09;;;;;;;0.30;0.30;;;;;;;-140.72;100.00;62079.53;5041011;28;20119;-71
2024/01/27 02:53:34;;;;;;;0.20;0.20;;;;;;;-140.72;100.00;62073.44;5024290;28;20033;-72
2024/01/27 02:56:00;;;;;;;0.20;0.20;;;;;;;-140.72;100.00;62146.66;5043163;28;20029;-71
2024/01/27 02:58:25;;;;;;;0.10;0.10;;;;;;;-140.72;100.00;62201.59;5036873;28;20391;-71
2024/01/27 03:00:50;;;;;;;0.20;0.20;;;;;;;-140.72;100.00;62213.78;5042077;28;20463;-71
2024/01/27 03:03:16;;;;;;;0.10;0.10;;;;;;;-140.72;100.00;62221.94;5019328;28;20160;-71
2024/01/27 03:05:41;;;;;;;0.10;0.10;;;;;;;-140.72;100.00;62305.34;5045397;28;20194;-71
2024/01/27 03:08:07;;;;;;;0.20;0.20;;;;;;;-140.72;100.00;62376.53;5027239;28;20032;-70
2024/01/27 03:10:32;;;;;;;0.20;0.20;;;;;;;-140.72;100.00;62390.78;5045070;28;20052;-70
2024/01/27 03:12:57;;;;;;;0.10;0.10;;;;;;;-140.72;100.00;62423.31;5040357;28;20037;-71
2024/01/27 03:15:23;;;;;;;0.20;0.20;;;;;;;-140.72;100.00;62437.56;5026599;28;20083;-70
2024/01/27 03:17:48;;;;;;;0.73;0.73;;;;;;;-140.72;100.00;62474.19;5031244;28;20120;-70
2024/01/27 03:20:14;;;;;;;0.57;0.57;;;;;;;-140.72;100.00;62529.09;5036685;28;20033;-71
2024/01/27 03:22:41;;;;;;;0.20;0.20;;;;;;;-140.72;100.00;62620.66;5027623;28;20028;-71
2024/01/27 03:25:08;;;;;;;0.20;0.20;;;;;;;-140.72;100.00;62620.66;5021736;28;20083;-70
2024/01/27 03:27:33;;;;;;;1.05;1.02;;;;;;;-140.72;100.00;62679.66;5038668;28;20029;-71
2024/01/27 03:30:01;;;;;;;0.20;0.20;;;;;;;-140.72;100.00;62706.09;5043201;28;20044;-71
2024/01/27 03:32:26;;;;;;;0.20;0.20;;;;;;;-140.72;100.00;62728.47;5023884;28;20532;-71
2024/01/27 03:34:52;;;;;;;0.10;0.10;;;;;;;-140.72;100.00;62761.03;5036288;28;20033;-70
2024/01/27 03:37:17;;;;;;;1.15;1.05;;;;;;;-140.72;100.00;62793.56;5019930;28;20025;-70
2024/01/27 03:39:42;;;;;;;0.20;0.20;;;;;;;-140.72;100.00;62813.91;5041635;28;20103;-71
2024/01/27 03:42:08;;;;;;;0.20;0.20;;;;;;;-140.72;100.00;62834.25;5044571;28;20033;-71
2024/01/27 03:44:33;;;;;;;0.20;0.20;;;;;;;-140.72;100.00;62834.25;5025083;28;20032;-70
2024/01/27 03:46:59;;;;;;;0.20;0.20;;;;;;;-140.72;100.00;62868.84;5036091;28;20163;-70
2024/01/27 03:49:24;;;;;;;2.50;1.27;;;;;;;-140.72;100.00;62870.88;5037900;28;20044;-70
2024/01/27 03:51:49;;;;;;;0.20;0.20;;;;;;;-140.72;100.00;62881.06;5022602;28;20035;-71
2024/01/27 03:54:15;;;;;;;0.20;0.20;;;;;;;-140.72;100.00;62907.50;5042269;28;20029;-70
2024/01/27 03:56:41;;;;;;;0.20;0.20;;;;;;;-140.72;100.00;62893.25;5054446;28;20032;-70
2024/01/27 03:59:09;;;;;;;0.20;0.20;;;;;;;-140.72;100.00;62980.75;5041951;28;20573;-71
2024/01/27 04:01:34;;;;;;;0.20;0.20;;;;;;;-140.72;100.00;63007.19;5044441;28;20030;-70
2024/01/27 04:04:00;;;;;;;0.20;0.20;;;;;;;-140.72;100.00;62980.75;5039934;28;20444;-70
2024/01/27 04:06:25;;;;;;;0.10;0.10;;;;;;;-140.72;100.00;63021.44;5040951;28;20041;-71
2024/01/27 04:08:50;;;;;;;0.20;0.20;;;;;;;-140.72;100.00;63066.19;5045610;28;20017;-70
2024/01/27 04:11:21;;;;;;;0.10;0.10;;;;;;;-140.72;100.00;63072.31;5041771;28;20415;-71
2024/01/27 04:13:46;;;;;;;0.20;0.20;;;;;;;-140.72;100.00;63119.09;5024938;28;20036;-70
2024/01/27 04:16:11;;;;;;;0.10;0.10;;;;;;;-140.72;100.00;63141.47;5037586;28;20037;-71
2024/01/27 04:18:38;;;;;;;0.20;0.20;;;;;;;-140.72;100.00;63151.66;5041406;28;20484;-71
2024/01/27 04:21:04;;;;;;;0.20;0.20;;;;;;;-140.72;100.00;63206.59;5047438;28;20041;-71
2024/01/27 04:23:29;;;;;;;0.20;0.20;;;;;;;-140.72;100.00;63208.63;5023151;28;20478;-71
2024/01/27 04:25:54;;;;;;;0.20;0.20;;;;;;;-140.72;100.00;63261.53;5025252;28;20021;-72
2024/01/27 04:28:20;;;;;;;0.10;0.10;;;;;;;-140.72;100.00;63265.59;5029447;28;20029;-71
2024/01/27 04:30:45;;;;;;;0.20;0.20;;;;;;;-140.72;100.00;63275.75;5029989;28;20021;-72
2024/01/27 04:33:12;;;;;;;0.20;0.20;;;;;;;-140.72;100.00;63310.34;5022484;28;20021;-71
2024/01/27 04:35:37;;;;;;;0.57;0.50;;;;;;;-140.72;100.00;63351.03;5042041;28;20022;-72
2024/01/27 04:38:02;;;;;;;0.10;0.10;;;;;;;-140.72;100.00;63359.19;5048646;28;20523;-71
2024/01/27 04:40:28;;;;;;;0.20;0.20;;;;;;;-140.72;100.00;63367.31;5044239;28;20211;-70
2024/01/27 04:42:53;;;;;;;0.20;0.20;;;;;;;-140.72;100.00;63416.16;5047406;28;20033;-70
2024/01/27 04:45:19;;;;;;;0.20;0.20;;;;;;;-140.72;100.00;63469.06;5047784;28;20021;-70
2024/01/27 04:47:44;;;;;;;0.20;0.20;;;;;;;-140.72;100.00;63515.88;5041255;28;20032;-71
2024/01/27 04:50:09;;;;;;;0.10;0.10;;;;;;;-140.72;100.00;63583.00;5037795;28;20049;-71
2024/01/27 04:52:35;;;;;;;0.10;0.10;;;;;;;-140.72;100.00;63576.91;5042046;28;20099;-71
2024/01/27 04:55:01;;;;;;;0.20;0.20;;;;;;;-140.72;100.00;63650.16;5034896;28;20140;-71
2024/01/27 04:57:26;;;;;;;0.20;0.20;;;;;;;-140.72;100.00;63615.56;5042107;28;20478;-71
2024/01/27 04:59:51;;;;;;;0.15;0.15;;;;;;;-140.72;100.00;63666.44;5048079;28;20028;-71
2024/01/27 05:02:18;;;;;;;0.20;0.20;;;;;;;-140.72;100.00;63721.38;5049147;28;20079;-71
2024/01/27 05:04:43;;;;;;;0.30;0.30;;;;;;;-140.72;100.00;63737.66;5043166;28;20033;-71
2024/01/27 05:07:09;;;;;;;0.10;0.10;;;;;;;-140.72;100.00;63802.78;5045314;28;20075;-71
2024/01/27 05:09:35;;;;;;;0.30;0.30;;;;;;;-140.72;100.00;63839.41;5021057;28;20110;-70
2024/01/27 05:12:01;;;;;;;0.20;0.20;;;;;;;-140.72;100.00;63819.06;5046361;28;20026;-71
2024/01/27 05:14:26;;;;;;;0.20;0.20;;;;;;;-140.72;100.00;63859.75;5026272;28;20025;-70
2024/01/27 05:16:51;;;;;;;0.20;0.20;;;;;;;-140.72;100.00;63869.94;5028873;28;20043;-70
2024/01/27 05:19:17;;;;;;;0.10;0.10;;;;;;;-140.72;100.00;63859.75;5026724;28;20060;-70
2024/01/27 05:21:43;;;;;;;0.20;0.20;;;;;;;-140.72;100.00;63906.56;5043536;28;20025;-71
2024/01/27 05:24:09;;;;;;;0.10;0.10;;;;;;;-140.72;100.00;63937.09;5049423;28;20564;-71
2024/01/27 05:26:34;;;;;;;0.30;0.30;;;;;;;-140.72;100.00;63981.88;5048079;28;20107;-71
2024/01/27 05:28:59;;;;;;;0.10;0.10;;;;;;;-140.72;100.00;64014.44;5045934;28;20037;-71
2024/01/27 05:31:26;;;;;;;0.20;0.20;;;;;;;-140.72;100.00;63955.41;5043809;28;20025;-71
2024/01/27 05:33:51;;;;;;;0.20;0.20;;;;;;;-140.72;100.00;64022.56;5037954;28;20044;-71
2024/01/27 05:36:17;;;;;;;0.20;0.20;;;;;;;-140.72;100.00;64044.94;5041281;28;20057;-71
2024/01/27 05:38:42;;;;;;;0.20;0.20;;;;;;;-140.72;100.00;64059.19;5050430;28;20028;-71
2024/01/27 05:41:07;;;;;;;0.20;0.20;;;;;;;-140.72;100.00;64051.06;5057939;28;20080;-71
2024/01/27 05:43:33;;;;;;;0.20;0.20;;;;;;;-140.72;100.00;64059.19;5047293;28;20120;-71
2024/01/27 05:45:58;;;;;;;0.20;0.20;;;;;;;-140.72;100.00;64069.38;5041277;28;20137;-70
2024/01/27 05:48:23;;;;;;;0.20;0.20;;;;;;;-140.72;100.00;64091.75;5037698;28;20033;-70
2024/01/27 05:50:59;;;;;;;0.10;0.10;;;;;;;-140.72;100.00;64169.09;5024374;28;20024;-70
2024/01/27 05:53:26;;;;;;;0.20;0.20;;;;;;;-140.72;100.00;64142.63;5042395;28;20423;-72
2024/01/27 05:55:55;;;;;;;0.20;0.20;;;;;;;-140.72;100.00;64201.66;5020973;28;20037;-72
2024/01/27 05:58:21;;;;;;;0.30;0.30;;;;;;;-140.72;100.00;64154.84;5020345;28;20506;-70
2024/01/27 06:00:47;;;;;;;0.20;0.20;;;;;;;-140.72;100.00;64211.81;5043586;28;20038;-73
2024/01/27 06:03:13;;;;;;;0.10;0.10;;;;;;;-140.72;100.00;64224.03;5019764;28;21556;-70
2024/01/27 06:05:38;;;;;;;0.10;0.10;;;;;;;-140.72;100.00;64250.50;5040235;28;20068;-70
2024/01/27 06:08:07;;;;;;;0.20;0.20;;;;;;;-140.72;100.00;64317.66;5022435;28;20162;-71
2024/01/27 06:10:32;;;;;;;0.20;0.20;;;;;;;-140.72;100.00;64329.88;5044165;28;20167;-72
2024/01/27 06:12:58;;;;;;;0.20;0.20;;;;;;;-140.72;100.00;64382.78;5045390;28;20378;-71
2024/01/27 06:15:23;;;;;;;0.20;0.20;;;;;;;-140.72;100.00;64425.53;5044573;28;20469;-71
2024/01/27 06:17:48;;;;;;;0.20;0.20;;;;;;;-140.72;100.00;64380.75;5045927;28;20029;-71
2024/01/27 06:20:16;;;;;;;0.20;0.20;;;;;;;-140.72;100.00;64443.84;5040131;28;20053;-71
2024/01/27 06:22:41;;;;;;;0.10;0.10;;;;;;;-140.72;100.00;64468.28;5039461;28;20090;-71
2024/01/27 06:25:08;;;;;;;0.20;0.20;;;;;;;-140.72;100.00;64437.75;5018241;28;20029;-72
2024/01/27 06:27:33;;;;;;;0.20;0.20;;;;;;;-140.72;100.00;64500.84;5027594;28;20021;-71
2024/01/27 06:29:59;;;;;;;0.20;0.20;;;;;;;-140.72;100.00;64523.22;5044083;28;20040;-71
2024/01/27 06:32:24;;;;;;;0.35;0.35;;;;;;;-140.72;100.00;64543.56;5021388;28;20076;-71
2024/01/27 06:34:49;;;;;;;0.20;0.20;;;;;;;-140.72;100.00;64565.97;5025352;28;20041;-72
2024/01/27 06:37:15;;;;;;;0.20;0.20;;;;;;;-140.72;100.00;64627.03;5038469;28;20085;-72
2024/01/27 06:39:40;;;;;;;0.20;0.20;;;;;;;-140.72;100.00;64657.56;5040221;28;20024;-71
2024/01/27 06:42:05;;;;;;;0.20;0.20;;;;;;;-140.72;100.00;64669.78;5036839;28;20025;-72
2024/01/27 06:44:31;;;;;;;0.30;0.30;;;;;;;-140.72;100.00;64663.66;5039883;28;20032;-72
2024/01/27 06:46:56;;;;;;;0.43;0.43;;;;;;;-140.72;100.00;64745.09;5023599;28;20103;-71
2024/01/27 06:49:21;;;;;;;0.20;0.20;;;;;;;-140.72;100.00;64816.31;5036757;28;20021;-71
2024/01/27 06:51:47;;;;;;;0.20;0.20;;;;;;;-140.72;100.00;64765.44;5023085;28;20395;-71
2024/01/27 06:54:12;;;;;;;0.20;0.20;;;;;;;-140.72;100.00;64834.63;5038649;28;20055;-70
2024/01/27 06:56:38;;;;;;;0.20;0.20;;;;;;;-140.72;100.00;64769.50;5043239;28;20029;-70
2024/01/27 06:59:03;;;;;;;0.10;0.10;;;;;;;-140.72;100.00;64783.75;5040890;28;20033;-71
2024/01/27 07:01:28;;;;;;;0.20;0.20;;;;;;;-140.72;100.00;64783.75;5043587;28;20078;-70
2024/01/27 07:03:54;;;;;;;0.20;0.20;;;;;;;-140.72;100.00;64789.84;5045043;28;20032;-70
2024/01/27 07:06:19;;;;;;;0.20;0.20;;;;;;;-140.72;100.00;64808.19;5037256;28;20029;-71
2024/01/27 07:08:44;;;;;;;0.20;0.20;;;;;;;-140.72;100.00;64816.31;5043384;28;20083;-71
2024/01/27 07:11:10;;;;;;;0.20;0.20;;;;;;;-140.72;100.00;64800.03;5041551;28;20038;-71
2024/01/27 07:13:52;;;;;;;0.20;0.20;;;;;;;-140.72;100.00;64714.56;5055771;28;20419;-71
2024/01/27 07:16:18;;;;;;;1.23;1.23;;;;;;;-140.72;100.00;64738.97;5056339;28;20036;-72
2024/01/27 07:18:43;;;;;;;0.10;0.10;;;;;;;-140.72;100.00;64724.72;5048549;28;20095;-71
2024/01/27 07:21:14;;;;;;;0.20;0.20;;;;;;;-140.72;100.00;64775.63;5042014;28;20203;-71
2024/01/27 07:23:39;;;;;;;0.30;0.30;;;;;;;-140.72;100.00;64800.03;5056548;28;20450;-71
2024/01/27 07:26:04;;;;;;;0.20;0.20;;;;;;;-140.72;100.00;64771.53;5031229;28;20037;-70
2024/01/27 07:28:30;;;;;;;0.20;0.20;;;;;;;-140.72;100.00;64832.59;5029887;28;20040;-70
2024/01/27 07:30:55;;;;;;;0.20;0.20;;;;;;;-140.72;100.00;64830.56;5031732;28;20069;-70
2024/01/27 07:33:20;;;;;;;0.20;0.20;;;;;;;-140.72;100.00;64808.19;5022055;28;20028;-70
2024/01/27 07:35:46;;;;;;;0.20;0.20;;;;;;;-140.72;100.00;64785.78;5029795;28;20380;-72
2024/01/27 07:38:11;;;;;;;0.20;0.20;;;;;;;-140.72;100.00;64855.00;5031973;28;20058;-74
2024/01/27 07:40:37;;;;;;;0.20;0.20;;;;;;;-140.72;100.00;64787.81;5030579;28;20472;-71
2024/01/27 07:43:03;;;;;;;0.10;0.10;;;;;;;-140.72;100.00;64857.03;5037021;28;20115;-71
2024/01/27 07:45:28;;;;;;;0.20;0.20;;;;;;;-140.72;100.00;64857.03;5032909;28;20041;-72
2024/01/27 07:47:53;;;;;;;0.20;0.20;;;;;;;-140.72;100.00;64826.50;5035506;28;20030;-72
2024/01/27 07:50:19;;;;;;;0.20;0.20;;;;;;;-140.72;100.00;64848.88;5033746;28;20032;-71
2024/01/27 07:52:44;;;;;;;0.20;0.20;;;;;;;-140.72;100.00;64869.25;5034003;28;20030;-71
2024/01/27 07:55:10;;;;;;;0.20;0.20;;;;;;;-140.72;100.00;64834.63;5033878;28;20029;-72
2024/01/27 07:57:35;;;;;;;0.20;0.20;;;;;;;-140.72;100.00;64875.34;5034494;28;20387;-71
2024/01/27 08:00:00;;;;;;;0.20;0.20;;;;;;;-140.72;100.00;64855.00;5034975;28;20088;-72
2024/01/27 08:02:26;;;;;;;0.10;0.10;;;;;;;-140.72;100.00;64852.97;5028832;28;20032;-72
2024/01/27 08:04:51;;;;;;;0.20;0.20;;;;;;;-140.72;100.00;64883.50;5033782;28;20029;-72
2024/01/27 08:07:17;;;;;;;0.20;0.20;;;;;;;-140.72;100.00;64869.25;5028395;28;20080;-72
2024/01/27 08:09:42;;;;;;;0.20;0.20;;;;;;;-140.72;100.00;64848.88;5029125;28;20049;-72
2024/01/27 08:12:08;;;;;;;0.20;0.20;;;;;;;-140.72;100.00;64887.56;5029518;28;20075;-72
2024/01/27 08:14:35;;;;;;;0.20;0.20;;;;;;;-140.72;100.00;64891.63;5040658;28;20044;-71
2024/01/27 08:17:00;;;;;;;0.25;0.25;;;;;;;-140.72;100.00;64883.50;5029898;28;20034;-72
2024/01/27 08:19:26;;;;;;;0.20;0.20;;;;;;;-140.72;100.00;64857.03;5027316;28;20037;-72
2024/01/27 08:21:52;;;;;;;0.38;0.38;;;;;;;-140.72;100.00;64875.34;5031282;28;20491;-71
2024/01/27 08:24:17;;;;;;;0.20;0.20;;;;;;;-140.72;100.00;64871.28;5022181;28;20041;-70
2024/01/27 08:26:42;;;;;;;0.20;0.20;;;;;;;-140.72;100.00;64865.16;5014620;28;20025;-71
2024/01/27 08:29:11;;;;;;;0.20;0.20;;;;;;;-140.72;100.00;64889.59;5019357;28;20087;-78
2024/01/27 08:31:38;;;;;;;0.20;0.20;;;;;;;-140.72;100.00;64840.75;5013281;28;20479;-70
2024/01/27 08:34:03;;;;;;;0.20;0.20;;;;;;;-140.72;100.00;64871.28;5015186;28;20464;-71
2024/01/27 08:36:29;;;;;;;0.20;0.20;;;;;;;-140.72;100.00;64848.88;5018050;28;20025;-70
2024/01/27 08:38:54;;;;;;;0.77;0.77;;;;;;;-140.72;100.00;64855.00;5012252;28;20076;-73
2024/01/27 08:41:20;;;;;;;0.20;0.20;;;;;;;-140.72;100.00;64812.25;5014122;28;20113;-74
2024/01/27 08:43:45;;;;;;;0.10;0.10;;;;;;;-140.72;100.00;64747.13;5011551;28;20029;-71
2024/01/27 08:46:12;;;;;;;0.10;0.10;;;;;;;-140.72;100.00;64795.97;5019516;28;20471;-73
2024/01/27 08:48:40;;;;;;;0.20;0.20;;;;;;;-140.72;100.00;64751.19;5023512;28;20081;-73
2024/01/27 08:51:05;;;;;;;0.10;0.10;;;;;;;-140.72;100.00;64783.75;5019271;28;20034;-72
2024/01/27 08:53:30;;;;;;;0.57;0.57;;;;;;;-140.72;100.00;64743.03;5021958;28;20068;-70
2024/01/27 08:55:56;;;;;;;0.75;0.75;;;;;;;-140.72;100.00;64804.09;5019383;28;20033;-70
2024/01/27 08:58:21;;;;;;;0.20;0.20;;;;;;;-140.72;100.00;64690.13;5022038;28;20113;-70
2024/01/27 09:00:46;;;;;;;0.10;0.10;;;;;;;-140.72;100.00;64728.78;4998826;28;20049;-70
2024/01/27 09:03:13;;;;;;;0.40;0.40;;;;;;;-140.72;100.00;64661.63;5014165;28;20054;-70
2024/01/27 09:05:40;;;;;;;0.20;0.20;;;;;;;-140.72;100.00;64610.75;5014469;28;20048;-71
2024/01/27 09:08:07;;;;;;;0.10;0.10;;;;;;;-140.72;100.00;64610.75;5028454;28;20101;-73
2024/01/27 09:10:33;;;;;;;0.20;0.20;;;;;;;-140.72;100.00;64588.34;5015624;28;20141;-70
2024/01/27 09:12:58;;;;;;;0.10;0.10;;;;;;;-140.72;100.00;64586.31;5019588;28;20467;-70
2024/01/27 09:15:23;;;;;;;0.20;0.20;;;;;;;-140.72;100.00;64539.50;5010764;28;20018;-69
2024/01/27 09:17:48;;;;;;;0.20;0.20;;;;;;;-140.72;100.00;64482.50;5013137;28;20487;-71
2024/01/27 09:20:14;;;;;;;0.20;0.20;;;;;;;-140.72;100.00;64397.03;5011130;28;20081;-70
2024/01/27 09:22:41;;;;;;;0.20;0.20;;;;;;;-140.72;100.00;64429.59;5010438;28;20392;-70
2024/01/27 09:25:08;;;;;;;0.20;0.20;;;;;;;-140.72;100.00;64335.97;5010140;28;20026;-69
2024/01/27 09:27:34;;;;;;;0.30;0.30;;;;;;;-140.72;100.00;64250.50;5013056;28;20030;-69
2024/01/27 09:29:59;;;;;;;0.20;0.20;;;;;;;-140.72;100.00;64262.72;5011446;28;20340;-70
2024/01/27 09:32:24;;;;;;;0.10;0.10;;;;;;;-140.72;100.00;64203.69;5012007;28;20136;-70
2024/01/27 09:34:53;;;;;;;0.15;0.15;;;;;;;-140.72;100.00;64142.63;5010489;28;20026;-70
2024/01/27 09:37:18;;;;;;;2.63;1.83;;;;;;;-140.72;100.00;64063.25;5010966;28;20394;-71
2024/01/27 09:39:43;;;;;;;0.20;0.20;;;;;;;-140.72;100.00;64040.88;5011796;28;20061;-70
2024/01/27 09:42:13;;;;;;;0.10;0.10;;;;;;;-140.72;100.00;63933.03;5023700;28;20039;-69
2024/01/27 09:44:42;;;;;;;0.20;0.20;;;;;;;-140.72;100.00;63871.97;5011552;28;20356;-70
2024/01/27 09:47:08;;;;;;;2.35;1.45;;;;;;;-140.72;100.00;63808.88;5000050;28;20068;-70
2024/01/27 09:49:34;;;;;;;0.20;0.20;;;;;;;-140.72;100.00;63735.63;5012040;28;20080;-70
2024/01/27 09:52:00;;;;;;;0.20;0.20;;;;;;;-140.72;100.00;63627.78;5008020;28;20040;-70
2024/01/27 09:54:25;;;;;;;0.20;0.20;;;;;;;-140.72;100.00;63550.44;4997022;28;20101;-70
2024/01/27 09:56:51;;;;;;;3.08;2.85;;;;;;;-140.72;100.00;63391.75;4994630;28;20033;-70
2024/01/27 09:59:18;;;;;;;0.50;0.50;;;;;;;-140.72;100.00;63300.19;5018619;28;20140;-71
2024/01/27 10:01:45;;;;;;;0.10;0.10;;;;;;;-140.72;100.00;63123.16;5011748;28;20030;-70
2024/01/27 10:04:11;;;;;;;0.10;0.10;;;;;;;-140.72;100.00;62899.38;4999503;28;20021;-70
2024/01/27 10:06:36;;;;;;;0.20;0.20;;;;;;;-140.72;100.00;62687.78;5011446;28;20030;-71
2024/01/27 10:09:02;;;;;;;0.35;0.35;;;;;;;-140.72;100.00;62482.31;5012080;28;20391;-70
2024/01/27 10:11:28;;;;;;;0.10;0.10;;;;;;;-140.72;100.00;62236.16;5042359;28;20121;-71
2024/01/27 10:13:55;;;;;;;0.10;0.10;;;;;;;-140.72;100.00;61898.50;5012152;28;20083;-71
2024/01/27 10:16:21;;;;;;;0.10;0.10;;;;;;;-140.72;100.00;61621.91;5011040;28;20029;-71
2024/01/27 10:18:46;;;;;;;4.18;4.05;;;;;;;-140.72;100.00;61442.94;5012104;28;20026;-70
2024/01/27 10:21:20;;;;;;;0.65;0.65;;;;;;;-140.72;100.00;61239.56;5010614;28;20052;-70
2024/01/27 10:23:45;;;;;;;0.20;0.20;;;;;;;-140.72;100.00;61101.28;5008001;28;20030;-71
2024/01/27 10:26:11;;;;;;;0.10;0.10;;;;;;;-140.72;100.00;60971.13;5007370;28;20021;-70
2024/01/27 10:28:36;;;;;;;0.73;0.73;;;;;;;-140.72;100.00;60832.84;5011180;28;20034;-71
2024/01/27 10:31:12;;;;;;;0.50;0.50;;;;;;;-140.72;100.00;60735.25;5005519;28;20018;-70
2024/01/27 10:33:38;;;;;;;0.25;0.25;;;;;;;-140.72;100.00;60603.09;5005704;28;20033;-70
2024/01/27 10:36:04;;;;;;;0.10;0.10;;;;;;;-140.72;100.00;60477.00;5007997;28;20027;-70
2024/01/27 10:38:38;;;;;;;0.10;0.10;;;;;;;-140.72;100.00;60373.31;5011556;28;20026;-71
2024/01/27 10:41:08;;;;;;;3.00;1.85;;;;;;;-140.72;100.00;60271.66;5008316;28;20029;-71
2024/01/27 10:43:35;;;;;;;0.10;0.10;;;;;;;-140.72;100.00;60198.47;5011148;28;20038;-71
2024/01/27 10:46:05;;;;;;;0.10;0.10;;;;;;;-140.72;100.00;60117.16;5008175;28;20164;-71
2024/01/27 10:48:31;;;;;;;0.10;0.10;;;;;;;-140.72;100.00;60019.56;5004250;28;20147;-71
2024/01/27 10:51:00;;;;;;;0.47;0.30;;;;;;;-140.72;100.00;59903.69;5023691;28;20026;-71
2024/01/27 10:53:30;;;;;;;0.20;0.20;;;;;;;-140.72;100.00;59775.59;5016113;28;20048;-70
2024/01/27 10:55:58;;;;;;;0.10;0.10;;;;;;;-140.72;100.00;59710.56;5006369;28;20028;-70
2024/01/27 10:58:27;;;;;;;0.10;0.10;;;;;;;-140.72;100.00;59578.41;5007269;28;20022;-71
2024/01/27 11:00:55;;;;;;;0.10;0.10;;;;;;;-140.72;100.00;59450.34;5010081;28;20455;-71
2024/01/27 11:03:22;;;;;;;0.10;0.10;;;;;;;-140.72;100.00;59399.53;4999374;28;20404;-71